Main page
METAR-TAF:

METAR-TAF

Airports :

Gdańsk, Poland

Gdańsk Lech Wałęsa Airport

latitude: 54-23N, longitude: 018-28E, elevation: 135 m

Current weather observation

The report was made 35 minutes ago, at 08:30 UTC
Wind 3 kt from the West, varying between South/Southwest and North/Northwest
Temperature 9°C
Humidity 53%
Pressure 1012 hPa
Visibility 10 km or more
Few clouds at a height of 3000 ft

METAR: EPGD 270830Z 27003KT 200V330 9999 FEW030 09/00 Q1012

Time: 11:05 (09:05 UTC)

Forecast

The report was made 3 hours and 35 minutes ago, at 05:30 UTC
Forecast valid from 27 at 06 UTC to 28 at 06 UTC
Wind 5 kt from the West/Southwest
Visibility 10 km or more
no clouds below 1500 m and no cumulonimbus
Probability 40% :
Temporary
from 27 at 10 UTC to 27 at 21 UTC
Broken clouds at a height of 2500 ft, Cumulonimbus.
rain showers
Temporary
from 27 at 23 UTC to 28 at 06 UTC
Visibility: 1500 m
mist

TAF: EPGD 270530Z 2706/2806 25005KT CAVOK PROB40 TEMPO 2710/2721 SHRA BKN025CB TEMPO 2723/2806 1500 BR

Weather observations and forecasts of more than 4000 airports (METAR and TAF reports).

The available stations are represented by yellow and red dots on the map.

Hover mouse over dot to see the name of the station.

Then click to see weather observations and forecasts.

To change the map : click on the green buttons with a black cross to zoom in, on the green button with a dash to zoom out, or on the green arrows for adjacent maps.


METAR-TAF: